sensor_id;sensor_type;location;lat;lon;timestamp;temperature;humidity
33739;DHT22;20063;51.730;11.110;2023-11-18T00:00:31;5.40;99.90
33739;DHT22;20063;51.730;11.110;2023-11-18T00:03:00;5.40;99.90
33739;DHT22;20063;51.730;11.110;2023-11-18T00:05:26;5.30;99.90
33739;DHT22;20063;51.730;11.110;2023-11-18T00:07:51;5.30;99.90
33739;DHT22;20063;51.730;11.110;2023-11-18T00:10:17;5.40;99.90
33739;DHT22;20063;51.730;11.110;2023-11-18T00:12:43;5.40;99.90
33739;DHT22;20063;51.730;11.110;2023-11-18T00:15:09;5.30;99.90
33739;DHT22;20063;51.730;11.110;2023-11-18T00:17:40;5.30;99.90
33739;DHT22;20063;51.730;11.110;2023-11-18T00:20:06;5.30;99.90
33739;DHT22;20063;51.730;11.110;2023-11-18T00:22:38;5.30;99.90
33739;DHT22;20063;51.730;11.110;2023-11-18T00:25:05;5.30;99.90
33739;DHT22;20063;51.730;11.110;2023-11-18T00:27:31;5.30;99.90
33739;DHT22;20063;51.730;11.110;2023-11-18T00:30:02;5.20;99.90
33739;DHT22;20063;51.730;11.110;2023-11-18T00:32:31;5.30;99.90
33739;DHT22;20063;51.730;11.110;2023-11-18T00:35:00;5.20;99.90
33739;DHT22;20063;51.730;11.110;2023-11-18T00:37:27;5.20;99.90
33739;DHT22;20063;51.730;11.110;2023-11-18T00:39:53;5.20;99.90
33739;DHT22;20063;51.730;11.110;2023-11-18T00:42:18;5.20;99.90
33739;DHT22;20063;51.730;11.110;2023-11-18T00:44:44;5.20;99.90
33739;DHT22;20063;51.730;11.110;2023-11-18T00:47:10;5.30;99.90
33739;DHT22;20063;51.730;11.110;2023-11-18T00:49:35;5.30;99.90
33739;DHT22;20063;51.730;11.110;2023-11-18T00:52:01;5.30;99.90
33739;DHT22;20063;51.730;11.110;2023-11-18T00:54:30;5.30;99.90
33739;DHT22;20063;51.730;11.110;2023-11-18T00:56:55;5.30;99.90
33739;DHT22;20063;51.730;11.110;2023-11-18T00:59:22;5.30;99.90
33739;DHT22;20063;51.730;11.110;2023-11-18T01:01:48;5.30;99.90
33739;DHT22;20063;51.730;11.110;2023-11-18T01:04:15;5.30;99.90
33739;DHT22;20063;51.730;11.110;2023-11-18T01:06:42;5.30;99.90
33739;DHT22;20063;51.730;11.110;2023-11-18T01:09:08;5.30;99.90
33739;DHT22;20063;51.730;11.110;2023-11-18T01:11:35;5.30;99.90
33739;DHT22;20063;51.730;11.110;2023-11-18T01:14:01;5.30;99.90
33739;DHT22;20063;51.730;11.110;2023-11-18T01:16:27;5.30;99.90
33739;DHT22;20063;51.730;11.110;2023-11-18T01:18:54;5.30;99.90
33739;DHT22;20063;51.730;11.110;2023-11-18T01:21:20;5.30;99.90
33739;DHT22;20063;51.730;11.110;2023-11-18T01:23:45;5.30;99.90
33739;DHT22;20063;51.730;11.110;2023-11-18T01:26:12;5.40;99.90
33739;DHT22;20063;51.730;11.110;2023-11-18T01:28:38;5.40;99.90
33739;DHT22;20063;51.730;11.110;2023-11-18T01:31:07;5.40;99.90
33739;DHT22;20063;51.730;11.110;2023-11-18T01:33:37;5.30;99.90
33739;DHT22;20063;51.730;11.110;2023-11-18T01:36:06;5.30;99.90
33739;DHT22;20063;51.730;11.110;2023-11-18T01:38:38;5.30;99.90
33739;DHT22;20063;51.730;11.110;2023-11-18T01:41:05;5.30;99.90
33739;DHT22;20063;51.730;11.110;2023-11-18T01:43:30;5.30;99.90
33739;DHT22;20063;51.730;11.110;2023-11-18T01:46:18;5.30;99.90
33739;DHT22;20063;51.730;11.110;2023-11-18T01:48:44;5.30;99.90
33739;DHT22;20063;51.730;11.110;2023-11-18T01:51:10;5.30;99.90
33739;DHT22;20063;51.730;11.110;2023-11-18T01:53:42;5.30;99.90
33739;DHT22;20063;51.730;11.110;2023-11-18T01:56:09;5.30;99.90
33739;DHT22;20063;51.730;11.110;2023-11-18T01:58:37;5.20;99.90
33739;DHT22;20063;51.730;11.110;2023-11-18T02:01:03;5.20;99.90
33739;DHT22;20063;51.730;11.110;2023-11-18T02:03:34;5.20;99.90
33739;DHT22;20063;51.730;11.110;2023-11-18T02:05:59;5.20;99.90
33739;DHT22;20063;51.730;11.110;2023-11-18T02:08:25;5.20;99.90
33739;DHT22;20063;51.730;11.110;2023-11-18T02:11:05;5.20;99.90
33739;DHT22;20063;51.730;11.110;2023-11-18T02:13:39;5.30;99.90
33739;DHT22;20063;51.730;11.110;2023-11-18T02:16:08;5.30;99.90
33739;DHT22;20063;51.730;11.110;2023-11-18T02:18:35;5.30;99.90
33739;DHT22;20063;51.730;11.110;2023-11-18T02:21:06;5.30;99.90
33739;DHT22;20063;51.730;11.110;2023-11-18T02:23:36;5.30;99.90
33739;DHT22;20063;51.730;11.110;2023-11-18T02:26:02;5.30;99.90
33739;DHT22;20063;51.730;11.110;2023-11-18T02:28:31;5.30;99.90
33739;DHT22;20063;51.730;11.110;2023-11-18T02:31:09;5.30;99.90
33739;DHT22;20063;51.730;11.110;2023-11-18T02:33:54;5.30;99.90
33739;DHT22;20063;51.730;11.110;2023-11-18T02:36:26;5.40;99.90
33739;DHT22;20063;51.730;11.110;2023-11-18T02:39:02;5.30;99.90
33739;DHT22;20063;51.730;11.110;2023-11-18T02:41:30;5.40;99.90
33739;DHT22;20063;51.730;11.110;2023-11-18T02:43:56;5.30;99.90
33739;DHT22;20063;51.730;11.110;2023-11-18T02:46:24;5.30;99.90
33739;DHT22;20063;51.730;11.110;2023-11-18T02:48:53;5.30;99.90
33739;DHT22;20063;51.730;11.110;2023-11-18T02:51:23;5.40;99.90
33739;DHT22;20063;51.730;11.110;2023-11-18T02:53:49;5.30;99.90
33739;DHT22;20063;51.730;11.110;2023-11-18T02:56:15;5.30;99.90
33739;DHT22;20063;51.730;11.110;2023-11-18T02:58:40;5.30;99.90
33739;DHT22;20063;51.730;11.110;2023-11-18T03:01:07;5.30;99.90
33739;DHT22;20063;51.730;11.110;2023-11-18T03:03:33;5.30;99.90
33739;DHT22;20063;51.730;11.110;2023-11-18T03:05:59;5.30;99.90
33739;DHT22;20063;51.730;11.110;2023-11-18T03:08:25;5.30;99.90
33739;DHT22;20063;51.730;11.110;2023-11-18T03:10:54;5.30;99.90
33739;DHT22;20063;51.730;11.110;2023-11-18T03:13:19;5.30;99.90
33739;DHT22;20063;51.730;11.110;2023-11-18T03:15:45;5.30;99.90
33739;DHT22;20063;51.730;11.110;2023-11-18T03:18:14;5.30;99.90
33739;DHT22;20063;51.730;11.110;2023-11-18T03:20:40;5.20;99.90
33739;DHT22;20063;51.730;11.110;2023-11-18T03:23:06;5.30;99.90
33739;DHT22;20063;51.730;11.110;2023-11-18T03:25:34;5.30;99.90
33739;DHT22;20063;51.730;11.110;2023-11-18T03:28:03;5.30;99.90
33739;DHT22;20063;51.730;11.110;2023-11-18T03:30:31;5.30;99.90
33739;DHT22;20063;51.730;11.110;2023-11-18T03:32:57;5.30;99.90
33739;DHT22;20063;51.730;11.110;2023-11-18T03:35:23;5.30;99.90
33739;DHT22;20063;51.730;11.110;2023-11-18T03:37:49;5.30;99.90
33739;DHT22;20063;51.730;11.110;2023-11-18T03:40:17;5.30;99.90
33739;DHT22;20063;51.730;11.110;2023-11-18T03:42:43;5.30;99.90
33739;DHT22;20063;51.730;11.110;2023-11-18T03:45:15;5.30;99.90
33739;DHT22;20063;51.730;11.110;2023-11-18T03:47:42;5.30;99.90
33739;DHT22;20063;51.730;11.110;2023-11-18T03:50:09;5.30;99.90
33739;DHT22;20063;51.730;11.110;2023-11-18T03:52:36;5.40;99.90
33739;DHT22;20063;51.730;11.110;2023-11-18T03:55:03;5.40;99.90
33739;DHT22;20063;51.730;11.110;2023-11-18T03:57:30;5.40;99.90
33739;DHT22;20063;51.730;11.110;2023-11-18T03:59:55;5.40;99.90
33739;DHT22;20063;51.730;11.110;2023-11-18T04:02:21;5.40;99.90
33739;DHT22;20063;51.730;11.110;2023-11-18T04:04:47;5.40;99.90
33739;DHT22;20063;51.730;11.110;2023-11-18T04:07:13;5.40;99.90
33739;DHT22;20063;51.730;11.110;2023-11-18T04:09:39;5.40;99.90
33739;DHT22;20063;51.730;11.110;2023-11-18T04:12:07;5.50;99.90
33739;DHT22;20063;51.730;11.110;2023-11-18T04:14:33;5.50;99.90
33739;DHT22;20063;51.730;11.110;2023-11-18T04:16:58;5.40;99.90
33739;DHT22;20063;51.730;11.110;2023-11-18T04:19:25;5.40;99.90
33739;DHT22;20063;51.730;11.110;2023-11-18T04:21:51;5.30;99.90
33739;DHT22;20063;51.730;11.110;2023-11-18T04:24:17;5.30;99.90
33739;DHT22;20063;51.730;11.110;2023-11-18T04:26:42;5.30;99.90
33739;DHT22;20063;51.730;11.110;2023-11-18T04:29:08;5.10;99.90
33739;DHT22;20063;51.730;11.110;2023-11-18T04:31:34;5.10;99.90
33739;DHT22;20063;51.730;11.110;2023-11-18T04:34:00;5.00;99.90
33739;DHT22;20063;51.730;11.110;2023-11-18T04:36:28;4.90;99.90
33739;DHT22;20063;51.730;11.110;2023-11-18T04:38:57;4.80;99.90
33739;DHT22;20063;51.730;11.110;2023-11-18T04:41:25;4.70;99.90
33739;DHT22;20063;51.730;11.110;2023-11-18T04:43:51;4.60;99.90
33739;DHT22;20063;51.730;11.110;2023-11-18T04:46:17;4.50;99.90
33739;DHT22;20063;51.730;11.110;2023-11-18T04:48:46;4.40;99.90
33739;DHT22;20063;51.730;11.110;2023-11-18T04:51:11;4.30;99.90
33739;DHT22;20063;51.730;11.110;2023-11-18T04:53:37;4.20;99.90
33739;DHT22;20063;51.730;11.110;2023-11-18T04:56:04;4.10;99.90
33739;DHT22;20063;51.730;11.110;2023-11-18T04:58:31;4.00;99.90
33739;DHT22;20063;51.730;11.110;2023-11-18T05:01:00;4.00;99.90
33739;DHT22;20063;51.730;11.110;2023-11-18T05:03:25;3.90;99.90
33739;DHT22;20063;51.730;11.110;2023-11-18T05:05:52;3.90;99.90
33739;DHT22;20063;51.730;11.110;2023-11-18T05:08:20;3.80;99.90
33739;DHT22;20063;51.730;11.110;2023-11-18T05:10:49;3.80;99.90
33739;DHT22;20063;51.730;11.110;2023-11-18T05:13:16;3.80;99.90
33739;DHT22;20063;51.730;11.110;2023-11-18T05:15:46;3.80;99.90
33739;DHT22;20063;51.730;11.110;2023-11-18T05:18:13;3.80;99.90
33739;DHT22;20063;51.730;11.110;2023-11-18T05:20:45;3.80;99.90
33739;DHT22;20063;51.730;11.110;2023-11-18T05:23:12;3.80;99.90
33739;DHT22;20063;51.730;11.110;2023-11-18T05:25:41;3.70;99.90
33739;DHT22;20063;51.730;11.110;2023-11-18T05:28:10;3.80;99.90
33739;DHT22;20063;51.730;11.110;2023-11-18T05:30:37;3.70;99.90
33739;DHT22;20063;51.730;11.110;2023-11-18T05:33:03;3.70;99.90
33739;DHT22;20063;51.730;11.110;2023-11-18T05:35:31;3.70;99.90
33739;DHT22;20063;51.730;11.110;2023-11-18T05:37:58;3.70;99.90
33739;DHT22;20063;51.730;11.110;2023-11-18T05:40:24;3.70;99.90
33739;DHT22;20063;51.730;11.110;2023-11-18T05:42:51;3.70;99.90
33739;DHT22;20063;51.730;11.110;2023-11-18T05:45:18;3.70;99.90
33739;DHT22;20063;51.730;11.110;2023-11-18T05:47:56;3.70;99.90
33739;DHT22;20063;51.730;11.110;2023-11-18T05:50:23;3.80;99.90
33739;DHT22;20063;51.730;11.110;2023-11-18T05:52:51;3.80;99.90
33739;DHT22;20063;51.730;11.110;2023-11-18T05:55:17;3.80;99.90
33739;DHT22;20063;51.730;11.110;2023-11-18T05:57:45;3.80;99.90
33739;DHT22;20063;51.730;11.110;2023-11-18T06:00:16;3.90;99.90
33739;DHT22;20063;51.730;11.110;2023-11-18T06:02:44;4.00;99.90
33739;DHT22;20063;51.730;11.110;2023-11-18T06:05:10;4.00;99.90
33739;DHT22;20063;51.730;11.110;2023-11-18T06:07:39;4.10;99.90
33739;DHT22;20063;51.730;11.110;2023-11-18T06:10:08;4.10;99.90
33739;DHT22;20063;51.730;11.110;2023-11-18T06:12:34;4.20;99.90
33739;DHT22;20063;51.730;11.110;2023-11-18T06:15:02;4.20;99.90
33739;DHT22;20063;51.730;11.110;2023-11-18T06:17:27;4.20;99.90
33739;DHT22;20063;51.730;11.110;2023-11-18T06:19:53;4.30;99.90
33739;DHT22;20063;51.730;11.110;2023-11-18T06:22:19;4.30;99.90
33739;DHT22;20063;51.730;11.110;2023-11-18T06:24:45;4.30;99.90
33739;DHT22;20063;51.730;11.110;2023-11-18T06:27:11;4.30;99.90
33739;DHT22;20063;51.730;11.110;2023-11-18T06:29:37;4.30;99.90
33739;DHT22;20063;51.730;11.110;2023-11-18T06:32:03;4.30;99.90
33739;DHT22;20063;51.730;11.110;2023-11-18T06:34:31;4.30;99.90
33739;DHT22;20063;51.730;11.110;2023-11-18T06:36:58;4.30;99.90
33739;DHT22;20063;51.730;11.110;2023-11-18T06:39:27;4.30;99.90
33739;DHT22;20063;51.730;11.110;2023-11-18T06:41:58;4.30;99.90
33739;DHT22;20063;51.730;11.110;2023-11-18T06:44:24;4.30;99.90
33739;DHT22;20063;51.730;11.110;2023-11-18T06:46:50;4.30;99.90
33739;DHT22;20063;51.730;11.110;2023-11-18T06:49:16;4.30;99.90
33739;DHT22;20063;51.730;11.110;2023-11-18T06:51:42;4.30;99.90
33739;DHT22;20063;51.730;11.110;2023-11-18T06:54:08;4.40;99.90
33739;DHT22;20063;51.730;11.110;2023-11-18T06:56:41;4.40;99.90
33739;DHT22;20063;51.730;11.110;2023-11-18T06:59:08;4.30;99.90
33739;DHT22;20063;51.730;11.110;2023-11-18T07:01:38;4.40;99.90
33739;DHT22;20063;51.730;11.110;2023-11-18T07:04:06;4.40;99.90
33739;DHT22;20063;51.730;11.110;2023-11-18T07:06:39;4.40;99.90
33739;DHT22;20063;51.730;11.110;2023-11-18T07:09:08;4.40;99.90
33739;DHT22;20063;51.730;11.110;2023-11-18T07:11:41;4.40;99.90
33739;DHT22;20063;51.730;11.110;2023-11-18T07:14:11;4.40;99.90
33739;DHT22;20063;51.730;11.110;2023-11-18T07:16:38;4.50;99.90
33739;DHT22;20063;51.730;11.110;2023-11-18T07:19:05;4.50;99.90
33739;DHT22;20063;51.730;11.110;2023-11-18T07:21:30;4.50;99.90
33739;DHT22;20063;51.730;11.110;2023-11-18T07:23:56;4.60;99.90
33739;DHT22;20063;51.730;11.110;2023-11-18T07:26:25;4.60;99.90
33739;DHT22;20063;51.730;11.110;2023-11-18T07:28:50;4.60;99.90
33739;DHT22;20063;51.730;11.110;2023-11-18T07:31:17;4.60;99.90
33739;DHT22;20063;51.730;11.110;2023-11-18T07:33:44;4.60;99.90
33739;DHT22;20063;51.730;11.110;2023-11-18T07:36:17;4.60;99.90
33739;DHT22;20063;51.730;11.110;2023-11-18T07:38:48;4.70;99.90
33739;DHT22;20063;51.730;11.110;2023-11-18T07:41:15;4.70;99.90
33739;DHT22;20063;51.730;11.110;2023-11-18T07:43:50;4.70;99.90
33739;DHT22;20063;51.730;11.110;2023-11-18T07:46:16;4.70;99.90
33739;DHT22;20063;51.730;11.110;2023-11-18T07:48:43;4.70;99.90
33739;DHT22;20063;51.730;11.110;2023-11-18T07:51:08;4.80;99.90
33739;DHT22;20063;51.730;11.110;2023-11-18T07:53:34;4.70;99.90
33739;DHT22;20063;51.730;11.110;2023-11-18T07:56:01;4.80;99.90
33739;DHT22;20063;51.730;11.110;2023-11-18T07:58:27;4.80;99.90
33739;DHT22;20063;51.730;11.110;2023-11-18T08:00:53;4.90;99.90
33739;DHT22;20063;51.730;11.110;2023-11-18T08:03:20;4.90;99.90
33739;DHT22;20063;51.730;11.110;2023-11-18T08:05:46;4.90;99.90
33739;DHT22;20063;51.730;11.110;2023-11-18T08:08:12;5.00;99.90
33739;DHT22;20063;51.730;11.110;2023-11-18T08:10:39;5.00;99.90
33739;DHT22;20063;51.730;11.110;2023-11-18T08:13:06;5.10;99.90
33739;DHT22;20063;51.730;11.110;2023-11-18T08:15:33;5.10;99.90
33739;DHT22;20063;51.730;11.110;2023-11-18T08:18:00;5.20;99.90
33739;DHT22;20063;51.730;11.110;2023-11-18T08:20:25;5.20;99.90
33739;DHT22;20063;51.730;11.110;2023-11-18T08:22:51;5.20;99.90
33739;DHT22;20063;51.730;11.110;2023-11-18T08:25:18;5.20;99.90
33739;DHT22;20063;51.730;11.110;2023-11-18T08:27:44;5.30;99.90
33739;DHT22;20063;51.730;11.110;2023-11-18T08:30:13;5.30;99.90
33739;DHT22;20063;51.730;11.110;2023-11-18T08:32:41;5.30;99.90
33739;DHT22;20063;51.730;11.110;2023-11-18T08:35:10;5.30;99.90
33739;DHT22;20063;51.730;11.110;2023-11-18T08:37:39;5.40;99.90
33739;DHT22;20063;51.730;11.110;2023-11-18T08:40:06;5.40;99.90
33739;DHT22;20063;51.730;11.110;2023-11-18T08:42:46;5.40;99.90
33739;DHT22;20063;51.730;11.110;2023-11-18T08:45:19;5.40;99.90
33739;DHT22;20063;51.730;11.110;2023-11-18T08:47:47;5.50;99.90
33739;DHT22;20063;51.730;11.110;2023-11-18T08:50:16;5.60;99.90
33739;DHT22;20063;51.730;11.110;2023-11-18T08:52:46;5.60;99.90
33739;DHT22;20063;51.730;11.110;2023-11-18T08:55:15;5.60;99.90
33739;DHT22;20063;51.730;11.110;2023-11-18T08:57:47;5.60;99.90
33739;DHT22;20063;51.730;11.110;2023-11-18T09:03:35;5.60;99.90
33739;DHT22;20063;51.730;11.110;2023-11-18T09:06:03;5.50;99.90
33739;DHT22;20063;51.730;11.110;2023-11-18T09:08:33;5.60;99.90
33739;DHT22;20063;51.730;11.110;2023-11-18T09:11:02;5.60;99.90
33739;DHT22;20063;51.730;11.110;2023-11-18T09:13:30;5.70;99.90
33739;DHT22;20063;51.730;11.110;2023-11-18T09:16:04;5.70;99.90
33739;DHT22;20063;51.730;11.110;2023-11-18T09:18:34;5.70;99.90
33739;DHT22;20063;51.730;11.110;2023-11-18T09:21:01;5.80;99.90
33739;DHT22;20063;51.730;11.110;2023-11-18T09:23:29;5.80;99.90
33739;DHT22;20063;51.730;11.110;2023-11-18T09:25:55;5.70;99.90
33739;DHT22;20063;51.730;11.110;2023-11-18T09:28:23;5.70;99.90
33739;DHT22;20063;51.730;11.110;2023-11-18T09:30:55;5.80;99.90
33739;DHT22;20063;51.730;11.110;2023-11-18T09:33:24;5.80;99.90
33739;DHT22;20063;51.730;11.110;2023-11-18T09:36:07;5.80;99.90
33739;DHT22;20063;51.730;11.110;2023-11-18T09:38:37;5.90;99.90
33739;DHT22;20063;51.730;11.110;2023-11-18T09:41:06;5.90;99.90
33739;DHT22;20063;51.730;11.110;2023-11-18T09:43:38;5.80;99.90
33739;DHT22;20063;51.730;11.110;2023-11-18T09:46:10;5.80;99.90
33739;DHT22;20063;51.730;11.110;2023-11-18T09:48:52;5.80;99.90
33739;DHT22;20063;51.730;11.110;2023-11-18T09:51:22;5.80;99.90
33739;DHT22;20063;51.730;11.110;2023-11-18T09:53:53;5.80;99.90
33739;DHT22;20063;51.730;11.110;2023-11-18T09:56:37;5.80;99.90
33739;DHT22;20063;51.730;11.110;2023-11-18T09:59:14;5.70;99.90
33739;DHT22;20063;51.730;11.110;2023-11-18T10:01:51;5.70;99.90
33739;DHT22;20063;51.730;11.110;2023-11-18T10:04:20;5.70;99.90
33739;DHT22;20063;51.730;11.110;2023-11-18T10:06:46;5.80;99.90
33739;DHT22;20063;51.730;11.110;2023-11-18T10:09:13;5.80;99.90
33739;DHT22;20063;51.730;11.110;2023-11-18T10:11:47;5.80;99.90
33739;DHT22;20063;51.730;11.110;2023-11-18T10:14:16;5.80;99.90
33739;DHT22;20063;51.730;11.110;2023-11-18T10:16:44;5.80;99.90
33739;DHT22;20063;51.730;11.110;2023-11-18T10:19:16;5.80;99.90
33739;DHT22;20063;51.730;11.110;2023-11-18T10:21:44;5.80;99.90
33739;DHT22;20063;51.730;11.110;2023-11-18T10:24:14;5.80;99.90
33739;DHT22;20063;51.730;11.110;2023-11-18T10:27:00;5.80;99.90
33739;DHT22;20063;51.730;11.110;2023-11-18T10:29:26;5.90;99.90
33739;DHT22;20063;51.730;11.110;2023-11-18T10:32:05;5.90;99.90
33739;DHT22;20063;51.730;11.110;2023-11-18T10:34:34;5.90;99.90
33739;DHT22;20063;51.730;11.110;2023-11-18T10:37:01;5.90;99.90
33739;DHT22;20063;51.730;11.110;2023-11-18T10:39:31;5.90;99.90
33739;DHT22;20063;51.730;11.110;2023-11-18T10:42:02;5.90;99.90
33739;DHT22;20063;51.730;11.110;2023-11-18T10:44:28;5.90;99.90
33739;DHT22;20063;51.730;11.110;2023-11-18T10:46:58;5.90;99.90
33739;DHT22;20063;51.730;11.110;2023-11-18T10:49:29;5.90;99.90
33739;DHT22;20063;51.730;11.110;2023-11-18T10:52:04;5.90;99.90
33739;DHT22;20063;51.730;11.110;2023-11-18T10:54:33;5.90;99.90
33739;DHT22;20063;51.730;11.110;2023-11-18T10:57:01;5.90;99.90
33739;DHT22;20063;51.730;11.110;2023-11-18T10:59:33;5.90;99.90
33739;DHT22;20063;51.730;11.110;2023-11-18T11:01:58;5.90;99.90
33739;DHT22;20063;51.730;11.110;2023-11-18T11:04:24;5.90;99.90
33739;DHT22;20063;51.730;11.110;2023-11-18T11:06:51;5.90;99.90
33739;DHT22;20063;51.730;11.110;2023-11-18T11:09:24;6.00;99.90
33739;DHT22;20063;51.730;11.110;2023-11-18T11:11:54;6.00;99.90
33739;DHT22;20063;51.730;11.110;2023-11-18T11:14:23;6.00;99.90
33739;DHT22;20063;51.730;11.110;2023-11-18T11:17:06;6.10;99.90
33739;DHT22;20063;51.730;11.110;2023-11-18T11:19:54;6.10;99.90
33739;DHT22;20063;51.730;11.110;2023-11-18T11:22:24;6.10;99.90
33739;DHT22;20063;51.730;11.110;2023-11-18T11:28:10;6.10;99.90
33739;DHT22;20063;51.730;11.110;2023-11-18T11:30:46;6.20;99.90
33739;DHT22;20063;51.730;11.110;2023-11-18T11:36:42;6.30;99.90
33739;DHT22;20063;51.730;11.110;2023-11-18T11:39:08;6.30;99.90
33739;DHT22;20063;51.730;11.110;2023-11-18T11:41:45;6.40;99.90
33739;DHT22;20063;51.730;11.110;2023-11-18T11:44:16;6.30;99.90
33739;DHT22;20063;51.730;11.110;2023-11-18T11:46:46;6.40;99.90
33739;DHT22;20063;51.730;11.110;2023-11-18T11:49:19;6.30;99.90
33739;DHT22;20063;51.730;11.110;2023-11-18T11:52:00;6.40;99.90
33739;DHT22;20063;51.730;11.110;2023-11-18T11:54:40;6.40;99.90
33739;DHT22;20063;51.730;11.110;2023-11-18T11:57:07;6.30;99.90
33739;DHT22;20063;51.730;11.110;2023-11-18T11:59:54;6.40;99.90
33739;DHT22;20063;51.730;11.110;2023-11-18T12:02:25;6.40;99.90
33739;DHT22;20063;51.730;11.110;2023-11-18T12:04:55;6.40;99.90
33739;DHT22;20063;51.730;11.110;2023-11-18T12:07:25;6.40;99.90
33739;DHT22;20063;51.730;11.110;2023-11-18T12:09:59;6.40;99.90
33739;DHT22;20063;51.730;11.110;2023-11-18T12:12:26;6.40;99.90
33739;DHT22;20063;51.730;11.110;2023-11-18T12:14:57;6.40;99.90
33739;DHT22;20063;51.730;11.110;2023-11-18T12:17:24;6.40;99.90
33739;DHT22;20063;51.730;11.110;2023-11-18T12:19:53;6.40;99.90
33739;DHT22;20063;51.730;11.110;2023-11-18T12:22:24;6.40;99.90
33739;DHT22;20063;51.730;11.110;2023-11-18T12:27:43;6.40;99.90
33739;DHT22;20063;51.730;11.110;2023-11-18T12:32:58;6.40;99.90
33739;DHT22;20063;51.730;11.110;2023-11-18T12:35:27;6.50;99.90
33739;DHT22;20063;51.730;11.110;2023-11-18T12:38:22;6.50;99.90
33739;DHT22;20063;51.730;11.110;2023-11-18T12:40:55;6.50;99.90
33739;DHT22;20063;51.730;11.110;2023-11-18T12:43:47;6.50;99.90
33739;DHT22;20063;51.730;11.110;2023-11-18T12:48:43;6.50;99.90
33739;DHT22;20063;51.730;11.110;2023-11-18T12:51:12;6.50;99.90
33739;DHT22;20063;51.730;11.110;2023-11-18T12:53:47;6.50;99.90
33739;DHT22;20063;51.730;11.110;2023-11-18T12:56:21;6.50;99.90
33739;DHT22;20063;51.730;11.110;2023-11-18T12:58:48;6.40;99.90
33739;DHT22;20063;51.730;11.110;2023-11-18T13:01:14;6.40;99.90
33739;DHT22;20063;51.730;11.110;2023-11-18T13:03:41;6.50;99.90
33739;DHT22;20063;51.730;11.110;2023-11-18T13:06:11;6.40;99.90
33739;DHT22;20063;51.730;11.110;2023-11-18T13:08:40;6.40;99.90
33739;DHT22;20063;51.730;11.110;2023-11-18T13:11:07;6.40;99.90
33739;DHT22;20063;51.730;11.110;2023-11-18T13:13:38;6.40;99.90
33739;DHT22;20063;51.730;11.110;2023-11-18T13:16:06;6.30;99.90
33739;DHT22;20063;51.730;11.110;2023-11-18T13:18:47;6.40;99.90
33739;DHT22;20063;51.730;11.110;2023-11-18T13:21:19;6.40;99.90
33739;DHT22;20063;51.730;11.110;2023-11-18T13:23:46;6.30;99.90
33739;DHT22;20063;51.730;11.110;2023-11-18T13:26:14;6.30;99.90
33739;DHT22;20063;51.730;11.110;2023-11-18T13:28:39;6.30;99.90
33739;DHT22;20063;51.730;11.110;2023-11-18T13:31:06;6.30;99.90
33739;DHT22;20063;51.730;11.110;2023-11-18T13:33:38;6.30;99.90
33739;DHT22;20063;51.730;11.110;2023-11-18T13:36:05;6.20;99.90
33739;DHT22;20063;51.730;11.110;2023-11-18T13:38:32;6.20;99.90
33739;DHT22;20063;51.730;11.110;2023-11-18T13:40:58;6.20;99.90
33739;DHT22;20063;51.730;11.110;2023-11-18T13:43:49;6.20;99.90
33739;DHT22;20063;51.730;11.110;2023-11-18T13:46:17;6.30;99.90
33739;DHT22;20063;51.730;11.110;2023-11-18T13:48:47;6.30;99.90
33739;DHT22;20063;51.730;11.110;2023-11-18T13:51:15;6.20;99.90
33739;DHT22;20063;51.730;11.110;2023-11-18T13:53:42;6.20;99.90
33739;DHT22;20063;51.730;11.110;2023-11-18T13:56:12;6.20;99.90
33739;DHT22;20063;51.730;11.110;2023-11-18T13:58:39;6.20;99.90
33739;DHT22;20063;51.730;11.110;2023-11-18T14:01:09;6.20;99.90
33739;DHT22;20063;51.730;11.110;2023-11-18T14:03:36;6.20;99.90
33739;DHT22;20063;51.730;11.110;2023-11-18T14:06:06;6.20;99.90
33739;DHT22;20063;51.730;11.110;2023-11-18T14:08:33;6.20;99.90
33739;DHT22;20063;51.730;11.110;2023-11-18T14:11:01;6.20;99.90
33739;DHT22;20063;51.730;11.110;2023-11-18T14:13:28;6.20;99.90
33739;DHT22;20063;51.730;11.110;2023-11-18T14:15:57;6.20;99.90
33739;DHT22;20063;51.730;11.110;2023-11-18T14:18:23;6.20;99.90
33739;DHT22;20063;51.730;11.110;2023-11-18T14:20:49;6.20;99.90
33739;DHT22;20063;51.730;11.110;2023-11-18T14:23:15;6.20;99.90
33739;DHT22;20063;51.730;11.110;2023-11-18T14:25:41;6.20;99.90
33739;DHT22;20063;51.730;11.110;2023-11-18T14:28:08;6.10;99.90
33739;DHT22;20063;51.730;11.110;2023-11-18T14:30:34;6.10;99.90
33739;DHT22;20063;51.730;11.110;2023-11-18T14:33:00;6.10;99.90
33739;DHT22;20063;51.730;11.110;2023-11-18T14:35:26;6.10;99.90
33739;DHT22;20063;51.730;11.110;2023-11-18T14:37:52;6.10;99.90
33739;DHT22;20063;51.730;11.110;2023-11-18T14:40:17;6.10;99.90
33739;DHT22;20063;51.730;11.110;2023-11-18T14:42:45;6.20;99.90
33739;DHT22;20063;51.730;11.110;2023-11-18T14:45:13;6.20;99.90
33739;DHT22;20063;51.730;11.110;2023-11-18T14:47:39;6.10;99.90
33739;DHT22;20063;51.730;11.110;2023-11-18T14:50:06;6.10;99.90
33739;DHT22;20063;51.730;11.110;2023-11-18T14:52:43;6.10;99.90
33739;DHT22;20063;51.730;11.110;2023-11-18T14:55:10;6.10;99.90
33739;DHT22;20063;51.730;11.110;2023-11-18T14:57:41;6.10;99.90
33739;DHT22;20063;51.730;11.110;2023-11-18T15:00:10;6.00;99.90
33739;DHT22;20063;51.730;11.110;2023-11-18T15:02:46;6.00;99.90
33739;DHT22;20063;51.730;11.110;2023-11-18T15:05:12;6.10;99.90
33739;DHT22;20063;51.730;11.110;2023-11-18T15:07:38;6.00;99.90
33739;DHT22;20063;51.730;11.110;2023-11-18T15:10:05;6.00;99.90
33739;DHT22;20063;51.730;11.110;2023-11-18T15:12:31;6.00;99.90
33739;DHT22;20063;51.730;11.110;2023-11-18T15:14:57;6.00;99.90
33739;DHT22;20063;51.730;11.110;2023-11-18T15:17:25;6.00;99.90
33739;DHT22;20063;51.730;11.110;2023-11-18T15:19:51;5.90;99.90
33739;DHT22;20063;51.730;11.110;2023-11-18T15:22:16;5.90;99.90
33739;DHT22;20063;51.730;11.110;2023-11-18T15:24:42;5.90;99.90
33739;DHT22;20063;51.730;11.110;2023-11-18T15:27:08;6.00;99.90
33739;DHT22;20063;51.730;11.110;2023-11-18T15:29:34;5.90;99.90
33739;DHT22;20063;51.730;11.110;2023-11-18T15:32:04;5.90;99.90
33739;DHT22;20063;51.730;11.110;2023-11-18T15:34:30;5.90;99.90
33739;DHT22;20063;51.730;11.110;2023-11-18T15:36:57;6.00;99.90
33739;DHT22;20063;51.730;11.110;2023-11-18T15:39:26;5.90;99.90
33739;DHT22;20063;51.730;11.110;2023-11-18T15:41:51;5.90;99.90
33739;DHT22;20063;51.730;11.110;2023-11-18T15:44:17;5.90;99.90
33739;DHT22;20063;51.730;11.110;2023-11-18T15:46:48;5.90;99.90
33739;DHT22;20063;51.730;11.110;2023-11-18T15:49:15;5.90;99.90
33739;DHT22;20063;51.730;11.110;2023-11-18T15:51:40;5.90;99.90
33739;DHT22;20063;51.730;11.110;2023-11-18T15:54:06;5.90;99.90
33739;DHT22;20063;51.730;11.110;2023-11-18T15:56:31;5.90;99.90